createdAt,value
2022-09-12T00:00:44.179Z,101352.47
2022-09-12T00:03:10.576Z,101344.34
2022-09-12T00:05:47.328Z,101350.09
2022-09-12T00:08:14.892Z,101348.50
2022-09-12T00:10:44.103Z,101341.81
2022-09-12T00:13:11.097Z,101347.47
2022-09-12T00:15:42.508Z,101340.47
2022-09-12T00:18:12.394Z,101342.75
2022-09-12T00:20:47.115Z,101336.88
2022-09-12T00:23:14.638Z,101341.72
2022-09-12T00:25:45.854Z,101339.78
2022-09-12T00:28:13.697Z,101344.84
2022-09-12T00:30:44.356Z,101347.72
2022-09-12T00:33:11.636Z,101345.50
2022-09-12T00:35:42.636Z,101345.84
2022-09-12T00:38:08.933Z,101346.53
2022-09-12T00:40:35.473Z,101350.19
2022-09-12T00:43:01.854Z,101347.50
2022-09-12T00:45:29.980Z,101345.72
2022-09-12T00:48:00.896Z,101340.09
2022-09-12T00:50:28.498Z,101340.69
2022-09-12T00:53:00.086Z,101338.47
2022-09-12T00:55:31.805Z,101340.75
2022-09-12T00:58:13.182Z,101343.59
2022-09-12T01:00:39.570Z,101347.78
2022-09-12T01:03:14.709Z,101344.75
2022-09-12T01:05:44.863Z,101341.44
2022-09-12T01:08:12.066Z,101346.25
2022-09-12T01:10:41.193Z,101342.06
2022-09-12T01:13:09.720Z,101338.09
2022-09-12T01:15:39.986Z,101341.50
2022-09-12T01:18:20.064Z,101340.09
2022-09-12T01:21:08.969Z,101338.13
2022-09-12T01:24:05.524Z,101340.44
2022-09-12T01:27:05.413Z,101333.44
2022-09-12T01:29:50.957Z,101334.88
2022-09-12T01:32:29.421Z,101335.16
2022-09-12T01:35:21.047Z,101333.44
2022-09-12T01:38:09.394Z,101336.56
2022-09-12T01:40:52.199Z,101332.88
2022-09-12T01:43:36.634Z,101325.91
2022-09-12T01:46:17.773Z,101330.44
2022-09-12T01:48:52.007Z,101329.69
2022-09-12T01:51:44.715Z,101327.97
2022-09-12T01:54:20.252Z,101328.81
2022-09-12T01:56:51.506Z,101327.97
2022-09-12T01:59:35.067Z,101331.09
2022-09-12T02:02:12.072Z,101330.25
2022-09-12T02:04:48.686Z,101331.94
2022-09-12T02:07:20.249Z,101327.78
2022-09-12T02:10:07.657Z,101326.06
2022-09-12T02:12:48.731Z,101334.50
2022-09-12T02:15:17.134Z,101336.19
2022-09-12T02:17:47.262Z,101326.63
2022-09-12T02:20:46.922Z,101332.81
2022-09-12T02:23:20.450Z,101326.63
2022-09-12T02:25:50.910Z,101325.53
2022-09-12T02:28:25.239Z,101343.22
2022-09-12T02:31:17.006Z,101336.47
2022-09-12T02:34:13.697Z,101334.22
2022-09-12T02:36:54.615Z,101339.31
2022-09-12T02:39:21.200Z,101333.38
2022-09-12T02:41:51.628Z,101332.00
2022-09-12T02:44:18.266Z,101336.22
2022-09-12T02:46:48.469Z,101333.69
2022-09-12T02:49:15.895Z,101335.09
2022-09-12T02:51:42.590Z,101337.31
2022-09-12T02:54:10.030Z,101331.16
2022-09-12T02:56:40.572Z,101338.47
2022-09-12T02:59:09.767Z,101328.91
2022-09-12T03:01:55.814Z,101327.81
2022-09-12T03:04:40.176Z,101337.34
2022-09-12T03:07:21.643Z,101332.00
2022-09-12T03:10:11.263Z,101327.22
2022-09-12T03:12:49.758Z,101323.31
2022-09-12T03:15:28.393Z,101328.66
2022-09-12T03:18:19.966Z,101328.34
2022-09-12T03:20:57.546Z,101331.72
2022-09-12T03:23:33.778Z,101328.06
2022-09-12T03:26:09.270Z,101335.03
2022-09-12T03:28:38.796Z,101333.34
2022-09-12T03:31:19.205Z,101331.94
2022-09-12T03:33:46.261Z,101329.69
2022-09-12T03:36:23.656Z,101331.09
2022-09-12T03:38:50.150Z,101336.69
2022-09-12T03:41:16.586Z,101333.59
2022-09-12T03:43:42.986Z,101335.56
2022-09-12T03:46:09.438Z,101340.06
2022-09-12T03:48:36.023Z,101338.66
2022-09-12T03:51:05.550Z,101342.28
2022-09-12T03:53:32.273Z,101344.81
2022-09-12T03:55:59.157Z,101346.75
2022-09-12T03:58:30.226Z,101346.47
2022-09-12T04:00:56.771Z,101342.81
2022-09-12T04:03:23.196Z,101342.81
2022-09-12T04:05:49.579Z,101345.88
2022-09-12T04:08:15.964Z,101337.78
2022-09-12T04:10:42.435Z,101337.78
2022-09-12T04:13:08.883Z,101334.94
2022-09-12T04:15:35.287Z,101339.16
2022-09-12T04:18:05.801Z,101340.28
2022-09-12T04:20:32.580Z,101340.56
2022-09-12T04:22:58.968Z,101341.41
2022-09-12T04:25:25.580Z,101340.53
2022-09-12T04:27:51.974Z,101344.44
2022-09-12T04:30:18.426Z,101347.50
2022-09-12T04:32:44.836Z,101346.69
2022-09-12T04:35:12.804Z,101344.44
2022-09-12T04:37:39.201Z,101334.09
2022-09-12T04:40:06.090Z,101334.38
2022-09-12T04:42:32.528Z,101341.06
2022-09-12T04:44:58.930Z,101336.59
2022-09-12T04:47:25.302Z,101340.16
2022-09-12T04:49:51.687Z,101343.50
2022-09-12T04:52:18.116Z,101336.16
2022-09-12T04:54:44.500Z,101345.38
2022-09-12T04:57:10.878Z,101348.19
2022-09-12T04:59:38.384Z,101349.31
2022-09-12T05:02:04.810Z,101349.03
2022-09-12T05:04:31.670Z,101342.34
2022-09-12T05:06:58.645Z,101340.94
2022-09-12T05:09:25.082Z,101331.19
2022-09-12T05:12:06.886Z,101338.50
2022-09-12T05:14:42.522Z,101342.19
2022-09-12T05:17:09.052Z,101345.88
2022-09-12T05:19:35.449Z,101346.16
2022-09-12T05:22:01.855Z,101341.72
2022-09-12T05:24:28.746Z,101346.19
2022-09-12T05:26:55.355Z,101345.66
2022-09-12T05:29:21.970Z,101348.22
2022-09-12T05:31:52.020Z,101349.66
2022-09-12T05:34:19.786Z,101351.06
2022-09-12T05:36:46.435Z,101349.41
2022-09-12T05:39:12.844Z,101357.81
2022-09-12T05:41:39.240Z,101360.88
2022-09-12T05:44:07.537Z,101364.81
2022-09-12T05:46:39.758Z,101361.19
2022-09-12T05:49:08.550Z,101356.97
2022-09-12T05:51:41.393Z,101356.66
2022-09-12T05:54:10.174Z,101369.81
2022-09-12T05:56:42.104Z,101365.88
2022-09-12T05:59:13.372Z,101372.00
2022-09-12T06:01:40.384Z,101362.38
2022-09-12T06:04:07.960Z,101366.22
2022-09-12T06:06:41.595Z,101366.09
2022-09-12T06:09:09.065Z,101373.78
2022-09-12T06:11:37.950Z,101380.72
2022-09-12T06:14:04.732Z,101379.44
2022-09-12T06:16:33.379Z,101377.28
2022-09-12T06:19:06.666Z,101382.69
2022-09-12T06:21:35.280Z,101383.84
2022-09-12T06:24:02.236Z,101391.84
2022-09-12T06:26:29.497Z,101393.44
2022-09-12T06:28:57.341Z,101389.53
2022-09-12T06:31:27.221Z,101387.94
2022-09-12T06:33:55.266Z,101391.97
2022-09-12T06:36:30.574Z,101382.50
2022-09-12T06:38:59.358Z,101393.63
2022-09-12T06:41:26.852Z,101388.34
2022-09-12T06:43:53.767Z,101387.72
2022-09-12T06:46:20.693Z,101391.63
2022-09-12T06:48:47.956Z,101389.59
2022-09-12T06:51:16.146Z,101389.88
2022-09-12T06:53:43.692Z,101387.78
2022-09-12T06:56:15.800Z,101376.38
2022-09-12T06:58:43.817Z,101379.69
2022-09-12T07:01:15.658Z,101378.75
2022-09-12T07:03:43.513Z,101375.59
2022-09-12T07:06:12.914Z,101381.38
2022-09-12T07:08:40.830Z,101372.25
2022-09-12T07:11:14.912Z,101370.91
2022-09-12T07:13:43.490Z,101371.50
2022-09-12T07:16:12.285Z,101382.25
2022-09-12T07:18:40.461Z,101373.09
2022-09-12T07:21:11.453Z,101374.50
2022-09-12T07:23:38.395Z,101380.28
2022-09-12T07:26:04.969Z,101374.84
2022-09-12T07:28:33.207Z,101384.47
2022-09-12T07:31:09.147Z,101380.16
2022-09-12T07:33:36.188Z,101386.09
2022-09-12T07:36:08.691Z,101377.63
2022-09-12T07:38:35.174Z,101373.63
2022-09-12T07:41:04.727Z,101377.34
2022-09-12T07:43:31.120Z,101376.38
2022-09-12T07:45:57.760Z,101384.41
2022-09-12T07:48:24.728Z,101378.38
2022-09-12T07:51:01.306Z,101380.88
2022-09-12T07:53:32.872Z,101384.22
2022-09-12T07:55:59.494Z,101384.47
2022-09-12T07:58:26.051Z,101388.00
2022-09-12T08:00:52.651Z,101384.16
2022-09-12T08:03:19.239Z,101380.34
2022-09-12T08:05:45.644Z,101387.16
2022-09-12T08:08:12.061Z,101382.50
2022-09-12T08:10:38.443Z,101382.16
2022-09-12T08:13:04.871Z,101388.66
2022-09-12T08:15:31.501Z,101392.00
2022-09-12T08:17:57.932Z,101398.22
2022-09-12T08:20:28.149Z,101398.72
2022-09-12T08:22:54.811Z,101401.88
2022-09-12T08:25:21.198Z,101391.03
2022-09-12T08:27:48.273Z,101396.22
2022-09-12T08:30:14.729Z,101393.03
2022-09-12T08:32:41.107Z,101386.16
2022-09-12T08:35:08.047Z,101388.03
2022-09-12T08:37:34.447Z,101382.09
2022-09-12T08:40:00.930Z,101386.16
2022-09-12T08:43:06.246Z,101388.53
2022-09-12T08:45:48.595Z,101385.53
2022-09-12T08:48:15.144Z,101393.16
2022-09-12T08:50:49.264Z,101388.66
2022-09-12T08:53:21.076Z,101381.06
2022-09-12T08:55:59.603Z,101383.94
2022-09-12T08:58:28.959Z,101384.78
2022-09-12T09:01:07.355Z,101386.28
2022-09-12T09:03:47.784Z,101379.72
2022-09-12T09:06:48.376Z,101379.09
2022-09-12T09:09:46.316Z,101376.66
2022-09-12T09:12:25.960Z,101378.13
2022-09-12T09:15:10.237Z,101376.34
2022-09-12T09:17:46.389Z,101376.53
2022-09-12T09:20:37.069Z,101373.25
2022-09-12T09:23:16.434Z,101373.50
2022-09-12T09:25:52.570Z,101372.25
2022-09-12T09:28:30.842Z,101376.97
2022-09-12T09:30:58.292Z,101370.03
2022-09-12T09:33:30.884Z,101371.31
2022-09-12T09:36:09.015Z,101372.88
2022-09-12T09:38:49.247Z,101367.03
2022-09-12T09:41:37.539Z,101360.97
2022-09-12T09:44:04.455Z,101351.53
2022-09-12T09:46:32.380Z,101360.06
2022-09-12T09:49:04.528Z,101352.00
2022-09-12T09:51:36.875Z,101350.53
2022-09-12T09:54:13.068Z,101351.38
2022-09-12T09:56:42.512Z,101345.78
2022-09-12T09:59:29.722Z,101352.16
2022-09-12T10:02:01.451Z,101345.00
2022-09-12T10:04:31.445Z,101349.22
2022-09-12T10:07:01.115Z,101343.69
2022-09-12T10:09:35.992Z,101346.69
2022-09-12T10:12:29.123Z,101346.66
2022-09-12T10:15:04.312Z,101346.72
2022-09-12T10:17:40.177Z,101346.13
2022-09-12T10:20:32.325Z,101348.69
2022-09-12T10:23:16.687Z,101345.28
2022-09-12T10:25:47.756Z,101342.72
2022-09-12T10:28:27.028Z,101347.00
2022-09-12T10:30:55.122Z,101350.56
2022-09-12T10:33:24.752Z,101343.75
2022-09-12T10:35:54.035Z,101342.63
2022-09-12T10:38:32.506Z,101337.69
2022-09-12T10:41:03.505Z,101347.31
2022-09-12T10:43:33.056Z,101342.00
2022-09-12T10:46:20.497Z,101344.09
2022-09-12T10:48:52.074Z,101338.06
2022-09-12T10:51:24.127Z,101338.97
2022-09-12T10:54:02.606Z,101344.84
2022-09-12T10:56:32.640Z,101346.31
2022-09-12T10:59:36.587Z,101339.72
2022-09-12T11:02:09.097Z,101335.31
2022-09-12T11:05:12.955Z,101340.75
2022-09-12T11:07:45.955Z,101330.19
2022-09-12T11:10:49.026Z,101328.72
2022-09-12T11:13:29.005Z,101336.19
2022-09-12T11:16:22.967Z,101322.56
2022-09-12T11:19:09.372Z,101324.78
2022-09-12T11:21:57.038Z,101324.28
2022-09-12T11:24:32.697Z,101327.13
2022-09-12T11:27:22.377Z,101325.63
2022-09-12T11:29:57.312Z,101324.78
2022-09-12T11:32:45.365Z,101323.44
2022-09-12T11:35:31.547Z,101315.81
2022-09-12T11:38:19.516Z,101312.97
2022-09-12T11:40:55.779Z,101313.47
2022-09-12T11:43:31.198Z,101309.06
2022-09-12T11:46:05.379Z,101315.53
2022-09-12T11:48:55.520Z,101312.97
2022-09-12T11:51:29.271Z,101301.56
2022-09-12T11:54:22.777Z,101300.88
2022-09-12T11:56:57.299Z,101299.59
2022-09-12T11:59:30.984Z,101298.44
2022-09-12T12:02:02.533Z,101292.81
2022-09-12T12:04:39.840Z,101297.44
2022-09-12T12:07:11.574Z,101295.25
2022-09-12T12:09:50.223Z,101297.47
2022-09-12T12:12:22.354Z,101291.06
2022-09-12T12:14:51.703Z,101297.06
2022-09-12T12:17:24.026Z,101291.81
2022-09-12T12:20:04.751Z,101283.75
2022-09-12T12:22:33.692Z,101285.19
2022-09-12T12:25:06.098Z,101278.50
2022-09-12T12:27:44.822Z,101273.19
2022-09-12T12:30:29.540Z,101271.78
2022-09-12T12:33:22.634Z,101274.63
2022-09-12T12:36:00.966Z,101270.38
2022-09-12T12:38:32.543Z,101272.41
2022-09-12T12:41:17.150Z,101271.63
2022-09-12T12:43:56.239Z,101277.97
2022-09-12T12:46:27.356Z,101271.09
2022-09-12T12:48:53.740Z,101276.53
2022-09-12T12:51:48.392Z,101276.09
2022-09-12T12:54:42.119Z,101275.00
2022-09-12T12:57:26.059Z,101272.25
2022-09-12T13:00:01.298Z,101271.69
2022-09-12T13:02:41.310Z,101266.22
2022-09-12T13:05:19.809Z,101269.44
2022-09-12T13:07:48.078Z,101267.63
2022-09-12T13:10:24.515Z,101268.91
2022-09-12T13:12:52.134Z,101265.81
2022-09-12T13:15:36.715Z,101256.28
2022-09-12T13:18:07.128Z,101253.25
2022-09-12T13:20:43.362Z,101247.53
2022-09-12T13:23:25.742Z,101244.41
2022-09-12T13:25:54.279Z,101245.09
2022-09-12T13:28:20.779Z,101243.28
2022-09-12T13:31:24.598Z,101242.97
2022-09-12T13:33:54.451Z,101240.00
2022-09-12T13:36:45.916Z,101238.97
2022-09-12T13:39:47.707Z,101233.28
2022-09-12T13:42:32.638Z,101229.94
2022-09-12T13:45:21.303Z,101222.22
2022-09-12T13:47:56.609Z,101224.59
2022-09-12T13:50:46.427Z,101222.53
2022-09-12T13:53:19.938Z,101226.31
2022-09-12T13:55:49.734Z,101224.28
2022-09-12T13:58:23.297Z,101222.25
2022-09-12T14:01:14.320Z,101215.84
2022-09-12T14:04:13.940Z,101207.13
2022-09-12T14:06:46.587Z,101210.38
2022-09-12T14:09:26.205Z,101214.28
2022-09-12T14:11:53.006Z,101207.63
2022-09-12T14:14:31.381Z,101213.75
2022-09-12T14:16:59.020Z,101221.13
2022-09-12T14:19:26.580Z,101208.16
2022-09-12T14:21:54.343Z,101211.34
2022-09-12T14:24:23.337Z,101204.47
2022-09-12T14:26:54.126Z,101207.66
2022-09-12T14:29:21.552Z,101206.41
2022-09-12T14:32:01.384Z,101196.84
2022-09-12T14:34:28.066Z,101198.19
2022-09-12T14:36:56.214Z,101197.09
2022-09-12T14:39:33.451Z,101194.25
2022-09-12T14:42:07.350Z,101185.69
2022-09-12T14:44:35.745Z,101188.88
2022-09-12T14:47:20.132Z,101187.34
2022-09-12T14:49:48.680Z,101180.59
2022-09-12T14:52:28.637Z,101177.13
2022-09-12T14:55:03.282Z,101181.75
2022-09-12T14:57:38.860Z,101181.66
2022-09-12T15:00:16.058Z,101175.94
2022-09-12T15:02:45.669Z,101177.84
2022-09-12T15:05:12.068Z,101182.00
2022-09-12T15:07:50.714Z,101170.13
2022-09-12T15:10:31.404Z,101169.88
2022-09-12T15:13:14.122Z,101175.44
2022-09-12T15:15:43.756Z,101172.13
2022-09-12T15:18:10.526Z,101170.25
2022-09-12T15:20:41.991Z,101161.47
2022-09-12T15:23:15.801Z,101164.44
2022-09-12T15:25:42.218Z,101163.00
2022-09-12T15:28:18.247Z,101165.72
2022-09-12T15:30:45.281Z,101159.06
2022-09-12T15:33:12.135Z,101160.03
2022-09-12T15:35:39.235Z,101151.09
2022-09-12T15:38:05.921Z,101153.59
2022-09-12T15:40:32.366Z,101156.94
2022-09-12T15:42:58.896Z,101153.25
2022-09-12T15:45:31.972Z,101151.44
2022-09-12T15:47:58.623Z,101146.44
2022-09-12T15:50:25.424Z,101149.44
2022-09-12T15:52:52.275Z,101149.66
2022-09-12T15:55:27.894Z,101148.47
2022-09-12T15:57:54.354Z,101153.81
2022-09-12T16:00:20.958Z,101147.66
2022-09-12T16:02:50.015Z,101143.28
2022-09-12T16:05:23.196Z,101146.22
2022-09-12T16:07:53.202Z,101146.22
2022-09-12T16:10:23.643Z,101136.19
2022-09-12T16:12:51.257Z,101142.25
2022-09-12T16:15:20.816Z,101138.09
2022-09-12T16:17:47.759Z,101138.31
2022-09-12T16:20:14.416Z,101138.06
2022-09-12T16:22:41.176Z,101130.69
2022-09-12T16:25:08.274Z,101138.28
2022-09-12T16:27:35.919Z,101126.75
2022-09-12T16:30:02.564Z,101124.50
2022-09-12T16:32:29.116Z,101129.56
2022-09-12T16:34:55.566Z,101119.59
2022-09-12T16:37:22.011Z,101120.75
2022-09-12T16:39:48.967Z,101119.31
2022-09-12T16:42:19.307Z,101112.69
2022-09-12T16:44:47.024Z,101125.59
2022-09-12T16:47:14.027Z,101118.94
2022-09-12T16:49:40.436Z,101117.97
2022-09-12T16:52:06.983Z,101112.97
2022-09-12T16:54:33.491Z,101108.66
2022-09-12T16:57:00.568Z,101106.03
2022-09-12T16:59:26.960Z,101094.38
2022-09-12T17:01:53.461Z,101098.25
2022-09-12T17:04:23.434Z,101095.47
2022-09-12T17:06:50.293Z,101092.84
2022-09-12T17:09:21.622Z,101094.19
2022-09-12T17:11:48.018Z,101092.13
2022-09-12T17:14:14.483Z,101091.16
2022-09-12T17:16:46.921Z,101088.72
2022-09-12T17:19:22.079Z,101086.03
2022-09-12T17:21:50.033Z,101086.09
2022-09-12T17:24:17.829Z,101086.91
2022-09-12T17:26:44.675Z,101081.84
2022-09-12T17:29:12.705Z,101083.19
2022-09-12T17:31:39.932Z,101081.84
2022-09-12T17:34:06.713Z,101085.88
2022-09-12T17:36:33.983Z,101085.22
2022-09-12T17:39:02.848Z,101082.94
2022-09-12T17:41:31.720Z,101088.66
2022-09-12T17:44:00.424Z,101095.88
2022-09-12T17:46:31.827Z,101097.72
2022-09-12T17:48:58.483Z,101091.88
2022-09-12T17:51:26.512Z,101096.91
2022-09-12T17:54:01.117Z,101097.22
2022-09-12T17:56:30.067Z,101094.56
2022-09-12T17:58:57.915Z,101096.59
2022-09-12T18:01:43.524Z,101089.59
2022-09-12T18:04:10.730Z,101086.94
2022-09-12T18:06:37.476Z,101103.44
2022-09-12T18:09:06.443Z,101094.59
2022-09-12T18:11:33.678Z,101095.13
2022-09-12T18:14:00.298Z,101098.47
2022-09-12T18:16:28.437Z,101095.78
2022-09-12T18:18:55.356Z,101100.59
2022-09-12T18:21:21.774Z,101094.91
2022-09-12T18:23:48.154Z,101087.41
2022-09-12T18:26:15.145Z,101083.19
2022-09-12T18:28:44.466Z,101083.88
2022-09-12T18:31:21.019Z,101086.19
2022-09-12T18:33:48.078Z,101089.00
2022-09-12T18:36:16.672Z,101086.50
2022-09-12T18:38:43.928Z,101085.28
2022-09-12T18:41:13.130Z,101091.56
2022-09-12T18:43:39.540Z,101084.53
2022-09-12T18:46:26.851Z,101083.53
2022-09-12T18:48:57.630Z,101077.47
2022-09-12T18:51:31.502Z,101082.16
2022-09-12T18:54:00.572Z,101074.09
2022-09-12T18:56:32.231Z,101073.53
2022-09-12T18:58:59.574Z,101063.38
2022-09-12T19:01:31.718Z,101059.66
2022-09-12T19:03:59.931Z,101058.28
2022-09-12T19:06:31.588Z,101056.22
2022-09-12T19:09:00.865Z,101054.31
2022-09-12T19:11:29.496Z,101053.53
2022-09-12T19:13:56.466Z,101056.03
2022-09-12T19:16:25.732Z,101056.44
2022-09-12T19:18:54.376Z,101057.91
2022-09-12T19:21:24.374Z,101048.91
2022-09-12T19:23:52.395Z,101050.19
2022-09-12T19:26:20.399Z,101048.66
2022-09-12T19:28:46.988Z,101046.13
2022-09-12T19:31:16.584Z,101046.59
2022-09-12T19:33:43.040Z,101038.72
2022-09-12T19:36:27.649Z,101042.31
2022-09-12T19:38:59.914Z,101045.34
2022-09-12T19:41:26.363Z,101047.47
2022-09-12T19:43:52.743Z,101043.91
2022-09-12T19:46:21.521Z,101046.22
2022-09-12T19:48:49.574Z,101037.84
2022-09-12T19:51:16.753Z,101041.41
2022-09-12T19:53:43.664Z,101038.41
2022-09-12T19:56:11.859Z,101029.22
2022-09-12T19:58:44.961Z,101033.59
2022-09-12T20:01:14.749Z,101035.06
2022-09-12T20:03:42.330Z,101030.03
2022-09-12T20:06:11.167Z,101030.16
2022-09-12T20:08:39.966Z,101023.16
2022-09-12T20:11:07.315Z,101018.03
2022-09-12T20:13:33.808Z,101013.66
2022-09-12T20:16:08.093Z,101021.59
2022-09-12T20:18:34.862Z,101021.59
2022-09-12T20:21:19.363Z,101019.69
2022-09-12T20:23:46.650Z,101016.72
2022-09-12T20:26:13.691Z,101015.16
2022-09-12T20:28:41.046Z,101014.63
2022-09-12T20:31:11.641Z,101004.41
2022-09-12T20:33:38.384Z,101015.25
2022-09-12T20:36:07.383Z,101007.53
2022-09-12T20:38:34.188Z,101012.75
2022-09-12T20:41:02.201Z,101014.22
2022-09-12T20:43:28.780Z,101021.38
2022-09-12T20:45:55.273Z,101008.31
2022-09-12T20:48:21.649Z,101010.09
2022-09-12T20:50:48.023Z,101009.03
2022-09-12T20:53:14.841Z,101004.78
2022-09-12T20:55:49.025Z,101007.69
2022-09-12T20:58:15.423Z,101005.19
2022-09-12T21:00:42.014Z,101006.94
2022-09-12T21:03:08.455Z,101005.91
2022-09-12T21:05:34.982Z,100997.13
2022-09-12T21:08:01.671Z,100999.50
2022-09-12T21:10:28.094Z,101004.06
2022-09-12T21:12:54.482Z,100993.97
2022-09-12T21:15:20.850Z,101000.75
2022-09-12T21:17:47.234Z,100991.44
2022-09-12T21:20:13.620Z,100996.25
2022-09-12T21:22:39.999Z,100992.38
2022-09-12T21:25:06.667Z,100993.41
2022-09-12T21:27:33.030Z,100990.31
2022-09-12T21:29:59.443Z,100982.06
2022-09-12T21:32:26.103Z,100981.25
2022-09-12T21:34:52.482Z,100980.88
2022-09-12T21:37:18.887Z,100978.22
2022-09-12T21:39:45.316Z,100982.69
2022-09-12T21:42:11.790Z,100975.28
2022-09-12T21:44:38.192Z,100982.81
2022-09-12T21:47:04.887Z,100970.91
2022-09-12T21:49:31.265Z,100970.09
2022-09-12T21:51:57.643Z,100964.66
2022-09-12T21:54:24.015Z,100960.91
2022-09-12T21:56:50.400Z,100962.59
2022-09-12T21:59:16.827Z,100956.34
2022-09-12T22:01:43.283Z,100956.13
2022-09-12T22:04:10.611Z,100945.56
2022-09-12T22:06:37.043Z,100949.88
2022-09-12T22:09:05.670Z,100945.19
2022-09-12T22:11:32.058Z,100938.91
2022-09-12T22:13:58.484Z,100946.22
2022-09-12T22:16:24.920Z,100939.47
2022-09-12T22:18:52.034Z,100928.59
2022-09-12T22:21:21.919Z,100930.66
2022-09-12T22:24:06.962Z,100932.75
2022-09-12T22:26:42.068Z,100929.50
2022-09-12T22:29:10.110Z,100930.13
2022-09-12T22:31:37.723Z,100919.59
2022-09-12T22:34:04.192Z,100920.94
2022-09-12T22:36:31.626Z,100919.50
2022-09-12T22:38:59.657Z,100905.09
2022-09-12T22:41:26.155Z,100905.00
2022-09-12T22:43:52.658Z,100902.28
2022-09-12T22:46:19.117Z,100896.94
2022-09-12T22:48:45.801Z,100890.19
2022-09-12T22:51:12.248Z,100892.03
2022-09-12T22:53:38.844Z,100891.41
2022-09-12T22:56:06.091Z,100881.59
2022-09-12T22:58:33.988Z,100883.81
2022-09-12T23:01:00.595Z,100868.44
2022-09-12T23:03:27.098Z,100876.91
2022-09-12T23:05:53.687Z,100874.72
2022-09-12T23:08:20.075Z,100864.47
2022-09-12T23:10:46.715Z,100876.81
2022-09-12T23:13:13.257Z,100876.91
2022-09-12T23:15:39.961Z,100868.34
2022-09-12T23:18:06.450Z,100869.09
2022-09-12T23:20:32.928Z,100873.56
2022-09-12T23:22:59.310Z,100876.81
2022-09-12T23:25:26.143Z,100863.84
2022-09-12T23:27:52.567Z,100867.91
2022-09-12T23:30:21.293Z,100875.13
2022-09-12T23:32:50.704Z,100859.03
2022-09-12T23:35:19.649Z,100866.66
2022-09-12T23:37:47.077Z,100860.53
2022-09-12T23:40:13.868Z,100856.53
2022-09-12T23:42:40.401Z,100850.06
2022-09-12T23:45:07.258Z,100843.63
2022-09-12T23:47:33.757Z,100845.28
2022-09-12T23:50:00.193Z,100852.66
2022-09-12T23:52:27.183Z,100844.13
2022-09-12T23:54:53.635Z,100848.00
2022-09-12T23:57:20.088Z,100839.75
2022-09-12T23:59:46.531Z,100837.56
